createdAt,value
2017-08-11T00:00:26.285Z,1013.0
2017-08-11T00:01:47.801Z,1013.0
2017-08-11T00:02:49.195Z,1013.0
2017-08-11T00:04:10.715Z,1013.0
2017-08-11T00:05:12.125Z,1013.0
2017-08-11T00:06:33.623Z,1013.0
2017-08-11T00:07:35.034Z,1013.0
2017-08-11T00:08:56.736Z,1013.0
2017-08-11T00:09:58.147Z,1013.0
2017-08-11T00:11:19.645Z,1013.0
2017-08-11T00:12:21.055Z,1012.9
2017-08-11T00:13:42.572Z,1012.9
2017-08-11T00:14:43.983Z,1013.0
2017-08-11T00:16:05.477Z,1013.0
2017-08-11T00:17:06.889Z,1013.0
2017-08-11T00:18:28.388Z,1013.0
2017-08-11T00:19:29.799Z,1012.9
2017-08-11T00:20:51.318Z,1012.9
2017-08-11T00:21:52.733Z,1012.9
2017-08-11T00:23:14.233Z,1012.9
2017-08-11T00:24:15.641Z,1012.9
2017-08-11T00:25:37.154Z,1012.9
2017-08-11T00:26:38.566Z,1012.9
2017-08-11T00:28:00.065Z,1012.9
2017-08-11T00:29:01.474Z,1012.9
2017-08-11T00:30:22.990Z,1012.9
2017-08-11T00:31:24.401Z,1012.9
2017-08-11T00:32:45.894Z,1012.9
2017-08-11T00:33:47.305Z,1012.8
2017-08-11T00:35:08.843Z,1012.8
2017-08-11T00:36:10.234Z,1012.8
2017-08-11T00:37:31.732Z,1012.8
2017-08-11T00:38:33.141Z,1012.8
2017-08-11T00:39:54.654Z,1012.8
2017-08-11T00:40:56.065Z,1012.8
2017-08-11T00:42:17.568Z,1012.8
2017-08-11T00:43:18.971Z,1012.8
2017-08-11T00:44:40.490Z,1012.8
2017-08-11T00:45:41.900Z,1012.8
2017-08-11T00:47:03.395Z,1012.8
2017-08-11T00:48:04.805Z,1012.8
2017-08-11T00:49:26.485Z,1012.9
2017-08-11T00:50:27.892Z,1012.8
2017-08-11T00:51:49.394Z,1012.8
2017-08-11T00:52:50.804Z,1012.8
2017-08-11T00:54:12.318Z,1012.8
2017-08-11T00:55:13.728Z,1012.8
2017-08-11T00:56:35.221Z,1012.8
2017-08-11T00:57:36.631Z,1012.8
2017-08-11T00:58:58.149Z,1012.8
2017-08-11T00:59:59.629Z,1012.8
2017-08-11T01:01:21.128Z,1012.8
2017-08-11T01:02:22.537Z,1012.8
2017-08-11T01:03:44.194Z,1012.8
2017-08-11T01:04:45.601Z,1012.8
2017-08-11T01:06:07.094Z,1012.7
2017-08-11T01:07:08.504Z,1012.7
2017-08-11T01:08:30.005Z,1012.7
2017-08-11T01:09:31.412Z,1012.7
2017-08-11T01:10:52.931Z,1012.7
2017-08-11T01:11:54.343Z,1012.8
2017-08-11T01:13:15.836Z,1012.8
2017-08-11T01:14:17.246Z,1012.8
2017-08-11T01:15:38.764Z,1012.8
2017-08-11T01:16:40.173Z,1012.8
2017-08-11T01:18:01.679Z,1012.7
2017-08-11T01:19:03.084Z,1012.7
2017-08-11T01:20:24.602Z,1012.7
2017-08-11T01:21:26.082Z,1012.7
2017-08-11T01:22:47.574Z,1012.7
2017-08-11T01:23:48.983Z,1012.6
2017-08-11T01:25:10.498Z,1012.6
2017-08-11T01:26:11.908Z,1012.6
2017-08-11T01:27:33.401Z,1012.6
2017-08-11T01:28:34.971Z,1012.5
2017-08-11T01:29:56.487Z,1012.5
2017-08-11T01:30:57.897Z,1012.5
2017-08-11T01:32:19.401Z,1012.4
2017-08-11T01:33:20.806Z,1012.4
2017-08-11T01:34:42.324Z,1012.4
2017-08-11T01:35:43.734Z,1012.4
2017-08-11T01:37:05.724Z,1012.3
2017-08-11T01:38:07.132Z,1012.3
2017-08-11T01:39:28.646Z,1012.3
2017-08-11T01:40:30.059Z,1012.3
2017-08-11T01:41:51.556Z,1012.3
2017-08-11T01:42:52.964Z,1012.3
2017-08-11T01:44:14.477Z,1012.2
2017-08-11T01:45:15.888Z,1012.3
2017-08-11T01:46:37.384Z,1012.2
2017-08-11T01:47:38.792Z,1012.3
2017-08-11T01:49:00.309Z,1012.2
2017-08-11T01:50:01.720Z,1012.3
2017-08-11T01:51:23.214Z,1012.3
2017-08-11T01:52:24.626Z,1012.2
2017-08-11T01:53:46.131Z,1012.2
2017-08-11T01:54:47.541Z,1012.2
2017-08-11T01:56:09.056Z,1012.2
2017-08-11T01:57:10.465Z,1012.1
2017-08-11T01:58:31.960Z,1012.1
2017-08-11T01:59:33.373Z,1012.1
2017-08-11T02:00:54.890Z,1012.0
2017-08-11T02:01:56.300Z,1012.1
2017-08-11T02:03:17.796Z,1012.1
2017-08-11T02:04:19.204Z,1012.0
2017-08-11T02:05:40.726Z,1012.0
2017-08-11T02:06:42.134Z,1012.0
2017-08-11T02:08:03.637Z,1011.9
2017-08-11T02:09:44.522Z,1011.9
2017-08-11T02:11:25.394Z,1011.9
2017-08-11T02:13:06.262Z,1011.9
2017-08-11T02:14:47.148Z,1011.9
2017-08-11T02:15:48.556Z,1011.9
2017-08-11T02:17:10.049Z,1011.9
2017-08-11T02:18:11.460Z,1011.9
2017-08-11T02:19:32.974Z,1011.9
2017-08-11T02:20:34.380Z,1011.8
2017-08-11T02:21:55.876Z,1011.8
2017-08-11T02:22:57.282Z,1011.8
2017-08-11T02:24:18.799Z,1011.8
2017-08-11T02:25:20.208Z,1011.8
2017-08-11T02:26:41.705Z,1011.7
2017-08-11T02:27:43.113Z,1011.8
2017-08-11T02:29:04.612Z,1011.8
2017-08-11T02:30:06.019Z,1011.8
2017-08-11T02:31:27.533Z,1011.8
2017-08-11T02:32:28.941Z,1011.8
2017-08-11T02:33:50.438Z,1011.8
2017-08-11T02:34:51.846Z,1011.8
2017-08-11T02:36:13.362Z,1011.8
2017-08-11T02:37:14.778Z,1011.8
2017-08-11T02:38:36.267Z,1011.7
2017-08-11T02:39:37.675Z,1011.8
2017-08-11T02:40:59.191Z,1011.8
2017-08-11T02:42:00.600Z,1011.8
2017-08-11T02:43:22.094Z,1011.8
2017-08-11T02:44:23.502Z,1011.8
2017-08-11T02:45:45.016Z,1011.9
2017-08-11T02:46:46.434Z,1011.8
2017-08-11T02:48:07.922Z,1011.8
2017-08-11T02:49:09.331Z,1011.8
2017-08-11T02:50:31.074Z,1011.8
2017-08-11T02:51:32.484Z,1011.8
2017-08-11T02:52:54.211Z,1011.8
2017-08-11T02:53:55.616Z,1011.8
2017-08-11T02:55:17.134Z,1011.7
2017-08-11T02:56:18.544Z,1011.7
2017-08-11T02:57:40.046Z,1011.7
2017-08-11T02:58:41.451Z,1011.7
2017-08-11T03:00:02.970Z,1011.7
2017-08-11T03:01:04.377Z,1011.7
2017-08-11T03:02:25.874Z,1011.7
2017-08-11T03:03:27.282Z,1011.7
2017-08-11T03:04:48.800Z,1011.7
2017-08-11T03:05:50.208Z,1011.7
2017-08-11T03:07:11.702Z,1011.7
2017-08-11T03:08:13.110Z,1011.7
2017-08-11T03:09:34.625Z,1011.7
2017-08-11T03:10:36.037Z,1011.8
2017-08-11T03:11:57.529Z,1011.7
2017-08-11T03:12:58.937Z,1011.8
2017-08-11T03:14:20.432Z,1011.8
2017-08-11T03:15:21.841Z,1011.8
2017-08-11T03:16:43.360Z,1011.8
2017-08-11T03:17:44.770Z,1011.8
2017-08-11T03:19:06.268Z,1011.8
2017-08-11T03:20:07.676Z,1011.8
2017-08-11T03:21:29.193Z,1011.8
2017-08-11T03:22:30.602Z,1011.8
2017-08-11T03:23:52.097Z,1011.8
2017-08-11T03:24:53.508Z,1011.8
2017-08-11T03:26:15.022Z,1011.8
2017-08-11T03:27:16.432Z,1011.8
2017-08-11T03:28:38.063Z,1011.8
2017-08-11T03:29:39.471Z,1011.8
2017-08-11T03:31:00.982Z,1011.8
2017-08-11T03:32:02.392Z,1011.8
2017-08-11T03:33:23.893Z,1011.8
2017-08-11T03:34:25.300Z,1011.8
2017-08-11T03:35:46.823Z,1011.8
2017-08-11T03:36:48.228Z,1011.8
2017-08-11T03:38:09.725Z,1011.8
2017-08-11T03:39:11.132Z,1011.8
2017-08-11T03:40:32.654Z,1011.7
2017-08-11T03:41:34.063Z,1011.7
2017-08-11T03:42:55.765Z,1011.8
2017-08-11T03:43:57.174Z,1011.7
2017-08-11T03:45:18.692Z,1011.7
2017-08-11T03:46:20.102Z,1011.7
2017-08-11T03:47:41.601Z,1011.7
2017-08-11T03:48:43.096Z,1011.7
2017-08-11T03:50:04.610Z,1011.7
2017-08-11T03:51:06.020Z,1011.7
2017-08-11T03:52:27.515Z,1011.7
2017-08-11T03:53:28.927Z,1011.7
2017-08-11T03:54:50.441Z,1011.7
2017-08-11T03:55:51.853Z,1011.7
2017-08-11T03:57:13.358Z,1011.7
2017-08-11T03:58:14.765Z,1011.6
2017-08-11T03:59:36.262Z,1011.6
2017-08-11T04:00:37.667Z,1011.6
2017-08-11T04:01:59.187Z,1011.6
2017-08-11T04:03:00.601Z,1011.6
2017-08-11T04:04:22.107Z,1011.5
2017-08-11T04:05:23.512Z,1011.5
2017-08-11T04:06:45.030Z,1011.5
2017-08-11T04:07:46.440Z,1011.5
2017-08-11T04:09:07.938Z,1011.6
2017-08-11T04:10:09.348Z,1011.5
2017-08-11T04:11:30.873Z,1011.5
2017-08-11T04:12:32.282Z,1011.5
2017-08-11T04:13:53.780Z,1011.6
2017-08-11T04:14:55.190Z,1011.6
2017-08-11T04:16:16.705Z,1011.6
2017-08-11T04:17:18.116Z,1011.6
2017-08-11T04:18:39.616Z,1011.6
2017-08-11T04:19:41.023Z,1011.6
2017-08-11T04:21:02.542Z,1011.6
2017-08-11T04:22:03.953Z,1011.6
2017-08-11T04:23:25.444Z,1011.5
2017-08-11T04:24:26.859Z,1011.6
2017-08-11T04:25:48.376Z,1011.5
2017-08-11T04:26:49.788Z,1011.6
2017-08-11T04:28:12.281Z,1011.5
2017-08-11T04:29:13.694Z,1011.6
2017-08-11T04:30:35.209Z,1011.6
2017-08-11T04:31:36.620Z,1011.6
2017-08-11T04:32:58.125Z,1011.5
2017-08-11T04:33:59.536Z,1011.6
2017-08-11T04:35:22.047Z,1011.5
2017-08-11T04:36:23.459Z,1011.5
2017-08-11T04:37:44.959Z,1011.5
2017-08-11T04:38:46.371Z,1011.6
2017-08-11T04:40:07.894Z,1011.6
2017-08-11T04:41:09.304Z,1011.5
2017-08-11T04:42:30.967Z,1011.5
2017-08-11T04:43:32.402Z,1011.5
2017-08-11T04:44:53.904Z,1011.5
2017-08-11T04:45:55.314Z,1011.5
2017-08-11T04:47:16.819Z,1011.5
2017-08-11T04:48:18.225Z,1011.5
2017-08-11T04:49:39.722Z,1011.5
2017-08-11T04:50:41.136Z,1011.5
2017-08-11T04:52:02.794Z,1011.5
2017-08-11T04:53:04.204Z,1011.5
2017-08-11T04:54:25.706Z,1011.5
2017-08-11T04:55:27.123Z,1011.5
2017-08-11T04:56:48.794Z,1011.4
2017-08-11T04:57:50.206Z,1011.4
2017-08-11T04:59:11.705Z,1011.4
2017-08-11T05:00:13.117Z,1011.4
2017-08-11T05:01:34.637Z,1011.5
2017-08-11T05:02:36.050Z,1011.4
2017-08-11T05:03:57.547Z,1011.5
2017-08-11T05:04:58.963Z,1011.5
2017-08-11T05:06:21.623Z,1011.5
2017-08-11T05:07:23.034Z,1011.5
2017-08-11T05:08:44.539Z,1011.4
2017-08-11T05:09:45.949Z,1011.5
2017-08-11T05:11:07.468Z,1011.4
2017-08-11T05:12:08.884Z,1011.5
2017-08-11T05:13:30.561Z,1011.4
2017-08-11T05:14:31.978Z,1011.5
2017-08-11T05:15:53.497Z,1011.5
2017-08-11T05:16:54.908Z,1011.5
2017-08-11T05:18:16.410Z,1011.5
2017-08-11T05:19:17.823Z,1011.5
2017-08-11T05:20:39.342Z,1011.5
2017-08-11T05:21:40.752Z,1011.4
2017-08-11T05:23:02.255Z,1011.4
2017-08-11T05:24:03.668Z,1011.4
2017-08-11T05:25:25.183Z,1011.4
2017-08-11T05:26:26.597Z,1011.4
2017-08-11T05:27:48.591Z,1011.4
2017-08-11T05:28:50.002Z,1011.4
2017-08-11T05:30:11.522Z,1011.5
2017-08-11T05:31:12.936Z,1011.5
2017-08-11T05:32:34.445Z,1011.5
2017-08-11T05:33:35.854Z,1011.5
2017-08-11T05:34:57.380Z,1011.5
2017-08-11T05:35:58.917Z,1011.5
2017-08-11T05:37:20.707Z,1011.5
2017-08-11T05:38:22.099Z,1011.5
2017-08-11T05:39:43.599Z,1011.4
2017-08-11T05:40:45.013Z,1011.4
2017-08-11T05:42:06.535Z,1011.4
2017-08-11T05:43:07.949Z,1011.4
2017-08-11T05:44:29.464Z,1011.4
2017-08-11T05:45:30.878Z,1011.4
2017-08-11T05:46:52.403Z,1011.3
2017-08-11T05:47:53.819Z,1011.3
2017-08-11T05:49:15.319Z,1011.3
2017-08-11T05:50:56.211Z,1011.3
2017-08-11T05:52:37.286Z,1011.3
2017-08-11T05:54:57.605Z,1011.2
2017-08-11T05:55:59.020Z,1011.3
2017-08-11T05:57:20.539Z,1011.3
2017-08-11T05:58:21.952Z,1011.2
2017-08-11T05:59:43.455Z,1011.2
2017-08-11T06:00:44.868Z,1011.2
2017-08-11T06:02:06.387Z,1011.2
2017-08-11T06:03:07.802Z,1011.1
2017-08-11T06:04:29.463Z,1011.1
2017-08-11T06:05:30.874Z,1011.1
2017-08-11T06:06:52.403Z,1011.1
2017-08-11T06:07:53.823Z,1011.1
2017-08-11T06:09:15.326Z,1011.1
2017-08-11T06:10:16.738Z,1011.1
2017-08-11T06:11:38.260Z,1011.1
2017-08-11T06:12:39.675Z,1011.1
2017-08-11T06:14:01.188Z,1011.1
2017-08-11T06:15:02.604Z,1011.1
2017-08-11T06:16:24.127Z,1011.1
2017-08-11T06:17:25.543Z,1011.1
2017-08-11T06:18:47.050Z,1011.1
2017-08-11T06:19:48.465Z,1011.1
2017-08-11T06:21:09.992Z,1011.1
2017-08-11T06:22:11.405Z,1011.1
2017-08-11T06:23:32.912Z,1011.1
2017-08-11T06:24:34.324Z,1011.1
2017-08-11T06:25:55.848Z,1011.1
2017-08-11T06:26:57.263Z,1011.1
2017-08-11T06:28:18.768Z,1011.1
2017-08-11T06:29:20.182Z,1011.1
2017-08-11T06:30:41.703Z,1011.1
2017-08-11T06:31:43.118Z,1011.2
2017-08-11T06:33:04.621Z,1011.1
2017-08-11T06:34:06.038Z,1011.1
2017-08-11T06:35:28.576Z,1011.1
2017-08-11T06:36:29.990Z,1011.1
2017-08-11T06:37:51.496Z,1011.1
2017-08-11T06:38:52.912Z,1011.1
2017-08-11T06:40:14.414Z,1011.0
2017-08-11T06:41:15.828Z,1011.0
2017-08-11T06:42:37.356Z,1011.0
2017-08-11T06:43:38.766Z,1011.0
2017-08-11T06:45:00.273Z,1011.0
2017-08-11T06:46:01.688Z,1011.0
2017-08-11T06:47:23.214Z,1011.0
2017-08-11T06:48:24.630Z,1011.0
2017-08-11T06:49:47.132Z,1011.0
2017-08-11T06:50:48.549Z,1011.0
2017-08-11T06:52:10.070Z,1011.0
2017-08-11T06:53:11.485Z,1011.0
2017-08-11T06:54:32.990Z,1011.0
2017-08-11T06:55:34.408Z,1011.0
2017-08-11T06:56:55.932Z,1011.0
2017-08-11T06:57:57.349Z,1011.0
2017-08-11T06:59:18.853Z,1011.0
2017-08-11T07:00:20.269Z,1011.0
2017-08-11T07:01:41.797Z,1011.0
2017-08-11T07:02:43.214Z,1011.0
2017-08-11T07:04:04.716Z,1011.1
2017-08-11T07:05:06.131Z,1011.1
2017-08-11T07:06:27.654Z,1011.1
2017-08-11T07:07:29.074Z,1011.1
2017-08-11T07:08:50.581Z,1011.1
2017-08-11T07:09:52.003Z,1011.1
2017-08-11T07:11:13.528Z,1011.0
2017-08-11T07:12:14.943Z,1011.1
2017-08-11T07:13:36.451Z,1011.1
2017-08-11T07:14:37.864Z,1011.1
2017-08-11T07:15:59.391Z,1011.1
2017-08-11T07:17:00.807Z,1011.1
2017-08-11T07:18:23.306Z,1011.1
2017-08-11T07:19:24.723Z,1011.1
2017-08-11T07:20:46.249Z,1011.1
2017-08-11T07:21:47.662Z,1011.1
2017-08-11T07:23:09.661Z,1011.2
2017-08-11T07:24:11.076Z,1011.2
2017-08-11T07:25:32.585Z,1011.1
2017-08-11T07:26:34.001Z,1011.1
2017-08-11T07:27:55.523Z,1011.1
2017-08-11T07:28:56.937Z,1011.1
2017-08-11T07:30:18.444Z,1011.2
2017-08-11T07:31:19.861Z,1011.1
2017-08-11T07:32:41.388Z,1011.1
2017-08-11T07:33:42.802Z,1011.1
2017-08-11T07:35:04.309Z,1011.1
2017-08-11T07:36:05.728Z,1011.1
2017-08-11T07:37:27.249Z,1011.2
2017-08-11T07:38:28.665Z,1011.2
2017-08-11T07:39:50.169Z,1011.2
2017-08-11T07:40:51.585Z,1011.2
2017-08-11T07:42:13.227Z,1011.2
2017-08-11T07:43:14.877Z,1011.2
2017-08-11T07:44:36.580Z,1011.1
2017-08-11T07:45:38.147Z,1011.1
2017-08-11T07:46:59.670Z,1011.1
2017-08-11T07:48:01.088Z,1011.1
2017-08-11T07:49:22.596Z,1011.1
2017-08-11T07:50:24.007Z,1011.1
2017-08-11T07:51:45.748Z,1011.1
2017-08-11T07:52:47.162Z,1011.1
2017-08-11T07:54:08.670Z,1011.1
2017-08-11T07:55:10.084Z,1011.1
2017-08-11T07:56:31.603Z,1011.0
2017-08-11T07:57:33.019Z,1011.0
2017-08-11T07:58:54.520Z,1011.0
2017-08-11T07:59:55.937Z,1010.9
2017-08-11T08:01:17.457Z,1010.9
2017-08-11T08:02:18.875Z,1010.9
2017-08-11T08:03:40.379Z,1010.9
2017-08-11T08:04:41.794Z,1010.9
2017-08-11T08:06:03.316Z,1010.9
2017-08-11T08:07:04.735Z,1010.9
2017-08-11T08:08:26.243Z,1010.9
2017-08-11T08:09:27.657Z,1010.9
2017-08-11T08:10:49.162Z,1011.0
2017-08-11T08:11:50.576Z,1011.0
2017-08-11T08:13:12.100Z,1011.0
2017-08-11T08:14:13.514Z,1011.0
2017-08-11T08:15:35.017Z,1011.0
2017-08-11T08:16:36.433Z,1011.1
2017-08-11T08:17:57.959Z,1011.1
2017-08-11T08:18:59.374Z,1011.1
2017-08-11T08:20:20.881Z,1011.1
2017-08-11T08:21:22.292Z,1011.1
2017-08-11T08:22:43.814Z,1011.2
2017-08-11T08:23:45.229Z,1011.2
2017-08-11T08:25:06.735Z,1011.2
2017-08-11T08:26:08.150Z,1011.2
2017-08-11T08:27:29.669Z,1011.2
2017-08-11T08:28:31.085Z,1011.2
2017-08-11T08:29:52.594Z,1011.1
2017-08-11T08:30:54.007Z,1011.1
2017-08-11T08:32:15.534Z,1011.1
2017-08-11T08:33:16.947Z,1011.2
2017-08-11T08:34:38.453Z,1011.1
2017-08-11T08:35:39.866Z,1011.1
2017-08-11T08:37:01.622Z,1011.2
2017-08-11T08:38:03.034Z,1011.2
2017-08-11T08:39:24.539Z,1011.1
2017-08-11T08:40:25.952Z,1011.1
2017-08-11T08:41:47.477Z,1011.1
2017-08-11T08:42:48.893Z,1011.1
2017-08-11T08:44:10.395Z,1011.2
2017-08-11T08:45:11.810Z,1011.2
2017-08-11T08:46:33.331Z,1011.1
2017-08-11T08:47:34.758Z,1011.2
2017-08-11T08:48:56.266Z,1011.2
2017-08-11T08:49:57.730Z,1011.1
2017-08-11T08:51:19.247Z,1011.1
2017-08-11T08:52:20.663Z,1011.1
2017-08-11T08:53:42.165Z,1011.1
2017-08-11T08:54:43.582Z,1011.2
2017-08-11T08:56:05.083Z,1011.2
2017-08-11T08:57:06.497Z,1011.2
2017-08-11T08:58:28.032Z,1011.2
2017-08-11T08:59:29.447Z,1011.2
2017-08-11T09:00:50.974Z,1011.3
2017-08-11T09:01:52.388Z,1011.3
2017-08-11T09:03:15.102Z,1011.3
2017-08-11T09:04:16.520Z,1011.3
2017-08-11T09:05:38.018Z,1011.3
2017-08-11T09:06:39.434Z,1011.3
2017-08-11T09:08:00.957Z,1011.2
2017-08-11T09:09:02.371Z,1011.2
2017-08-11T09:10:23.877Z,1011.2
2017-08-11T09:11:25.290Z,1011.3
2017-08-11T09:12:46.830Z,1011.3
2017-08-11T09:13:48.248Z,1011.4
2017-08-11T09:15:09.787Z,1011.5
2017-08-11T09:16:11.201Z,1011.5
2017-08-11T09:17:32.723Z,1011.5
2017-08-11T09:18:34.165Z,1011.5
2017-08-11T09:19:55.650Z,1011.5
2017-08-11T09:20:57.065Z,1011.5
2017-08-11T09:22:18.583Z,1011.6
2017-08-11T09:23:20.119Z,1011.6
2017-08-11T09:24:41.626Z,1011.6
2017-08-11T09:25:43.040Z,1011.6
2017-08-11T09:27:04.559Z,1011.6
2017-08-11T09:28:05.977Z,1011.6
2017-08-11T09:29:27.479Z,1011.6
2017-08-11T09:30:28.893Z,1011.5
2017-08-11T09:31:50.416Z,1011.5
2017-08-11T09:32:51.832Z,1011.5
2017-08-11T09:34:13.337Z,1011.5
2017-08-11T09:35:14.753Z,1011.5
2017-08-11T09:36:36.275Z,1011.4
2017-08-11T09:38:17.154Z,1011.4
2017-08-11T09:39:18.567Z,1011.5
2017-08-11T09:40:40.272Z,1011.5
2017-08-11T09:42:21.171Z,1011.4
2017-08-11T09:43:22.588Z,1011.4
2017-08-11T09:44:44.110Z,1011.5
2017-08-11T09:45:45.525Z,1011.4
2017-08-11T09:47:07.051Z,1011.4
2017-08-11T09:48:08.462Z,1011.4
2017-08-11T09:49:29.974Z,1011.4
2017-08-11T09:50:31.385Z,1011.4
2017-08-11T09:51:52.915Z,1011.3
2017-08-11T09:52:54.332Z,1011.3
2017-08-11T09:54:15.838Z,1011.3
2017-08-11T09:55:17.252Z,1011.3
2017-08-11T09:56:39.015Z,1011.3
2017-08-11T09:57:40.437Z,1011.3
2017-08-11T09:59:03.220Z,1011.3
2017-08-11T10:00:04.625Z,1011.3
2017-08-11T10:01:26.129Z,1011.3
2017-08-11T10:02:27.544Z,1011.2
2017-08-11T10:03:49.067Z,1011.2
2017-08-11T10:04:50.483Z,1011.2
2017-08-11T10:06:12.150Z,1011.2
2017-08-11T10:07:13.583Z,1011.2
2017-08-11T10:08:35.613Z,1011.3
2017-08-11T10:09:37.034Z,1011.3
2017-08-11T10:10:58.554Z,1011.3
2017-08-11T10:12:00.049Z,1011.4
2017-08-11T10:13:21.578Z,1011.4
2017-08-11T10:14:23.001Z,1011.4
2017-08-11T10:15:44.650Z,1011.5
2017-08-11T10:16:46.068Z,1011.5
2017-08-11T10:18:07.633Z,1011.5
2017-08-11T10:19:09.044Z,1011.4
2017-08-11T10:20:30.580Z,1011.5
2017-08-11T10:21:32.064Z,1011.4
2017-08-11T10:22:53.628Z,1011.5
2017-08-11T10:23:55.045Z,1011.4
2017-08-11T10:25:16.583Z,1011.4
2017-08-11T10:26:17.999Z,1011.4
2017-08-11T10:27:39.548Z,1011.4
2017-08-11T10:28:40.974Z,1011.4
2017-08-11T10:30:02.599Z,1011.4
2017-08-11T10:31:04.100Z,1011.4
2017-08-11T10:32:26.711Z,1011.4
2017-08-11T10:33:28.122Z,1011.4
2017-08-11T10:34:50.641Z,1011.4
2017-08-11T10:35:52.061Z,1011.4
2017-08-11T10:37:13.606Z,1011.4
2017-08-11T10:38:15.047Z,1011.4
2017-08-11T10:39:36.652Z,1011.4
2017-08-11T10:40:38.070Z,1011.5
2017-08-11T10:42:00.085Z,1011.5
2017-08-11T10:43:01.498Z,1011.5
2017-08-11T10:44:23.102Z,1011.5
2017-08-11T10:45:24.653Z,1011.5
2017-08-11T10:46:46.165Z,1011.5
2017-08-11T10:47:47.582Z,1011.5
2017-08-11T10:49:10.117Z,1011.4
2017-08-11T10:50:11.658Z,1011.4
2017-08-11T10:51:33.395Z,1011.4
2017-08-11T10:52:35.115Z,1011.4
2017-08-11T10:53:56.646Z,1011.4
2017-08-11T10:54:58.099Z,1011.4
2017-08-11T10:56:19.584Z,1011.3
2017-08-11T10:57:21.005Z,1011.3
2017-08-11T10:58:42.803Z,1011.3
2017-08-11T10:59:44.224Z,1011.3
2017-08-11T11:01:05.940Z,1011.2
2017-08-11T11:02:07.359Z,1011.2
2017-08-11T11:03:29.075Z,1011.2
2017-08-11T11:04:30.492Z,1011.2
2017-08-11T11:05:51.997Z,1011.2
2017-08-11T11:06:53.423Z,1011.2
2017-08-11T11:08:14.951Z,1011.2
2017-08-11T11:09:16.368Z,1011.2
2017-08-11T11:10:37.884Z,1011.2
2017-08-11T11:11:39.311Z,1011.2
2017-08-11T11:13:02.037Z,1011.2
2017-08-11T11:14:03.450Z,1011.2
2017-08-11T11:15:24.955Z,1011.2
2017-08-11T11:16:26.371Z,1011.2
2017-08-11T11:17:47.889Z,1011.2
2017-08-11T11:18:49.303Z,1011.2
2017-08-11T11:20:11.008Z,1011.2
2017-08-11T11:21:12.468Z,1011.2
2017-08-11T11:22:34.106Z,1011.1
2017-08-11T11:23:35.525Z,1011.1
2017-08-11T11:24:57.610Z,1011.1
2017-08-11T11:25:59.028Z,1011.0
2017-08-11T11:27:20.536Z,1011.0
2017-08-11T11:28:21.946Z,1011.0
2017-08-11T11:29:43.663Z,1011.0
2017-08-11T11:30:45.071Z,1011.0
2017-08-11T11:32:06.576Z,1011.0
2017-08-11T11:33:08.246Z,1011.0
2017-08-11T11:34:29.932Z,1010.9
2017-08-11T11:35:31.601Z,1010.9
2017-08-11T11:36:53.631Z,1010.8
2017-08-11T11:37:55.045Z,1010.9
2017-08-11T11:39:16.613Z,1010.8
2017-08-11T11:40:18.029Z,1010.8
2017-08-11T11:41:39.613Z,1010.8
2017-08-11T11:42:41.030Z,1010.7
2017-08-11T11:44:02.552Z,1010.7
2017-08-11T11:45:03.971Z,1010.8
2017-08-11T11:46:25.542Z,1010.6
2017-08-11T11:47:26.989Z,1010.7
2017-08-11T11:48:48.510Z,1010.7
2017-08-11T11:49:49.925Z,1010.7
2017-08-11T11:51:11.433Z,1010.7
2017-08-11T11:52:13.061Z,1010.7
2017-08-11T11:53:34.625Z,1010.6
2017-08-11T11:54:36.041Z,1010.6
2017-08-11T11:55:57.552Z,1010.5
2017-08-11T11:56:58.972Z,1010.5
2017-08-11T11:58:20.494Z,1010.5
2017-08-11T11:59:21.929Z,1010.4
2017-08-11T12:00:43.510Z,1010.4
2017-08-11T12:01:45.023Z,1010.5
2017-08-11T12:03:06.613Z,1010.5
2017-08-11T12:04:08.146Z,1010.5
2017-08-11T12:05:29.950Z,1010.6
2017-08-11T12:06:31.368Z,1010.6
2017-08-11T12:07:52.876Z,1010.6
2017-08-11T12:08:54.325Z,1010.6
2017-08-11T12:10:15.864Z,1010.6
2017-08-11T12:11:17.298Z,1010.6
2017-08-11T12:12:38.815Z,1010.7
2017-08-11T12:13:40.241Z,1010.7
2017-08-11T12:15:02.161Z,1010.7
2017-08-11T12:16:04.149Z,1010.7
2017-08-11T12:17:25.688Z,1010.7
2017-08-11T12:18:27.100Z,1010.7
2017-08-11T12:19:48.624Z,1010.7
2017-08-11T12:20:50.040Z,1010.6
2017-08-11T12:22:11.550Z,1010.6
2017-08-11T12:23:12.966Z,1010.6
2017-08-11T12:24:34.559Z,1010.6
2017-08-11T12:25:35.988Z,1010.5
2017-08-11T12:26:57.497Z,1010.6
2017-08-11T12:27:58.927Z,1010.6
2017-08-11T12:29:21.992Z,1010.6
2017-08-11T12:30:23.413Z,1010.6
2017-08-11T12:31:44.916Z,1010.6
2017-08-11T12:32:46.336Z,1010.7
2017-08-11T12:34:08.858Z,1010.8
2017-08-11T12:35:10.276Z,1010.8
2017-08-11T12:36:31.784Z,1010.9
2017-08-11T12:37:33.198Z,1010.9
2017-08-11T12:38:54.729Z,1010.9
2017-08-11T12:39:56.147Z,1010.9
2017-08-11T12:41:17.657Z,1010.9
2017-08-11T12:42:58.534Z,1010.9
2017-08-11T12:44:00.006Z,1010.9
2017-08-11T12:45:21.650Z,1010.9
2017-08-11T12:46:23.154Z,1010.9
2017-08-11T12:47:45.438Z,1010.9
2017-08-11T12:48:46.854Z,1010.9
2017-08-11T12:50:08.587Z,1010.9
2017-08-11T12:51:09.996Z,1010.9
2017-08-11T12:52:31.500Z,1010.9
2017-08-11T12:53:32.916Z,1010.9
2017-08-11T12:54:54.459Z,1010.9
2017-08-11T12:55:55.875Z,1011.0
2017-08-11T12:57:17.376Z,1011.0
2017-08-11T12:58:18.984Z,1011.0
2017-08-11T12:59:40.808Z,1011.1
2017-08-11T13:00:42.229Z,1011.1
2017-08-11T13:02:03.736Z,1011.1
2017-08-11T13:03:05.151Z,1011.0
2017-08-11T13:04:26.675Z,1011.0
2017-08-11T13:05:28.092Z,1011.0
2017-08-11T13:06:50.027Z,1011.0
2017-08-11T13:07:51.458Z,1011.0
2017-08-11T13:09:12.981Z,1011.0
2017-08-11T13:10:14.418Z,1011.0
2017-08-11T13:11:35.992Z,1011.0
2017-08-11T13:12:37.404Z,1011.0
2017-08-11T13:13:58.922Z,1011.0
2017-08-11T13:15:00.340Z,1011.0
2017-08-11T13:16:21.888Z,1011.0
2017-08-11T13:17:23.318Z,1011.0
2017-08-11T13:18:44.831Z,1011.1
2017-08-11T13:19:46.249Z,1011.1
2017-08-11T13:21:07.771Z,1011.1
2017-08-11T13:22:09.186Z,1011.1
2017-08-11T13:23:30.689Z,1011.1
2017-08-11T13:24:32.103Z,1011.1
2017-08-11T13:25:53.625Z,1011.2
2017-08-11T13:26:55.040Z,1011.2
2017-08-11T13:28:16.545Z,1011.2
2017-08-11T13:29:17.962Z,1011.2
2017-08-11T13:30:39.487Z,1011.1
2017-08-11T13:31:40.903Z,1011.1
2017-08-11T13:33:02.410Z,1011.1
2017-08-11T13:34:03.823Z,1011.0
2017-08-11T13:35:25.349Z,1011.0
2017-08-11T13:37:06.227Z,1010.9
2017-08-11T13:38:07.642Z,1010.9
2017-08-11T13:39:29.168Z,1011.0
2017-08-11T13:40:30.581Z,1011.0
2017-08-11T13:41:52.085Z,1011.0
2017-08-11T13:42:53.499Z,1011.0
2017-08-11T13:44:15.002Z,1010.9
2017-08-11T13:45:16.423Z,1011.0
2017-08-11T13:46:38.306Z,1011.0
2017-08-11T13:47:39.720Z,1010.9
2017-08-11T13:49:01.242Z,1011.0
2017-08-11T13:50:02.658Z,1011.0
2017-08-11T13:51:24.180Z,1010.9
2017-08-11T13:52:25.601Z,1010.9
2017-08-11T13:53:47.122Z,1010.9
2017-08-11T13:54:48.544Z,1010.9
2017-08-11T13:56:10.070Z,1011.0
2017-08-11T13:57:11.485Z,1010.9
2017-08-11T13:58:32.996Z,1011.0
2017-08-11T13:59:34.417Z,1011.0
2017-08-11T14:00:55.973Z,1011.0
2017-08-11T14:01:57.558Z,1011.0
2017-08-11T14:03:19.093Z,1011.0
2017-08-11T14:04:20.509Z,1011.0
2017-08-11T14:05:42.037Z,1011.0
2017-08-11T14:06:43.452Z,1010.9
2017-08-11T14:08:04.961Z,1010.9
2017-08-11T14:09:06.375Z,1010.9
2017-08-11T14:10:27.901Z,1010.8
2017-08-11T14:11:29.315Z,1010.8
2017-08-11T14:12:50.823Z,1010.7
2017-08-11T14:13:52.238Z,1010.7
2017-08-11T14:15:13.763Z,1010.7
2017-08-11T14:16:15.179Z,1010.7
2017-08-11T14:17:37.183Z,1010.7
2017-08-11T14:18:38.597Z,1010.6
2017-08-11T14:20:00.120Z,1010.6
2017-08-11T14:21:01.540Z,1010.6
2017-08-11T14:22:23.048Z,1010.6
2017-08-11T14:23:24.465Z,1010.6
2017-08-11T14:24:46.150Z,1010.5
2017-08-11T14:25:47.630Z,1010.5
2017-08-11T14:27:09.434Z,1010.6
2017-08-11T14:28:10.941Z,1010.6
2017-08-11T14:29:32.461Z,1010.6
2017-08-11T14:30:33.896Z,1010.6
2017-08-11T14:31:55.570Z,1010.6
2017-08-11T14:32:58.004Z,1010.6
2017-08-11T14:34:19.635Z,1010.7
2017-08-11T14:35:21.212Z,1010.6
2017-08-11T14:36:42.807Z,1010.7
2017-08-11T14:37:44.224Z,1010.6
2017-08-11T14:39:05.882Z,1010.7
2017-08-11T14:40:07.323Z,1010.6
2017-08-11T14:41:28.916Z,1010.6
2017-08-11T14:42:30.498Z,1010.6
2017-08-11T14:43:52.624Z,1010.6
2017-08-11T14:44:54.109Z,1010.6
2017-08-11T14:46:15.714Z,1010.6
2017-08-11T14:47:17.247Z,1010.6
2017-08-11T14:48:38.945Z,1010.6
2017-08-11T14:49:40.404Z,1010.6
2017-08-11T14:51:02.033Z,1010.7
2017-08-11T14:52:03.450Z,1010.6
2017-08-11T14:53:24.955Z,1010.7
2017-08-11T14:54:26.373Z,1010.7
2017-08-11T14:55:47.908Z,1010.7
2017-08-11T14:56:49.324Z,1010.7
2017-08-11T14:58:10.831Z,1010.7